createdAt,value
2022-10-16T00:02:34.910Z,99.90
2022-10-16T00:05:27.134Z,99.90
2022-10-16T00:08:19.274Z,99.90
2022-10-16T00:11:19.096Z,99.90
2022-10-16T00:14:14.709Z,99.90
2022-10-16T00:17:06.835Z,99.90
2022-10-16T00:19:59.033Z,99.90
2022-10-16T00:22:51.196Z,99.90
2022-10-16T00:25:43.315Z,99.90
2022-10-16T00:28:36.714Z,99.90
2022-10-16T00:31:29.607Z,99.90
2022-10-16T00:34:21.747Z,99.90
2022-10-16T00:37:14.311Z,99.90
2022-10-16T00:40:07.020Z,99.90
2022-10-16T00:42:59.275Z,99.90
2022-10-16T00:45:51.603Z,99.90
2022-10-16T00:48:52.257Z,99.90
2022-10-16T00:51:51.043Z,99.90
2022-10-16T00:54:43.386Z,99.90
2022-10-16T00:57:35.548Z,99.90
2022-10-16T01:00:28.153Z,99.90
2022-10-16T01:03:29.719Z,99.90
2022-10-16T01:06:29.907Z,99.90
2022-10-16T01:09:29.422Z,99.90
2022-10-16T01:12:52.793Z,99.90
2022-10-16T01:15:50.202Z,99.90
2022-10-16T01:18:48.829Z,99.90
2022-10-16T01:21:45.036Z,99.90
2022-10-16T01:24:49.378Z,99.90
2022-10-16T01:27:43.389Z,99.90
2022-10-16T01:30:37.434Z,99.90
2022-10-16T01:34:00.044Z,99.90
2022-10-16T01:37:02.675Z,99.90
2022-10-16T01:39:59.411Z,99.90
2022-10-16T01:45:55.428Z,99.90
2022-10-16T01:48:49.403Z,99.90
2022-10-16T01:51:44.558Z,99.90
2022-10-16T01:54:38.982Z,99.90
2022-10-16T01:57:33.125Z,99.90
2022-10-16T02:00:26.047Z,99.90
2022-10-16T02:03:20.695Z,99.90
2022-10-16T02:06:13.543Z,99.90
2022-10-16T02:09:05.738Z,99.90
2022-10-16T02:12:03.330Z,99.90
2022-10-16T02:14:55.915Z,99.90
2022-10-16T02:17:48.048Z,99.90
2022-10-16T02:21:08.101Z,99.90
2022-10-16T02:24:09.431Z,99.90
2022-10-16T02:27:46.496Z,99.90
2022-10-16T02:30:52.690Z,99.90
2022-10-16T02:33:46.369Z,99.90
2022-10-16T02:36:40.208Z,99.90
2022-10-16T02:39:33.259Z,99.90
2022-10-16T02:42:35.521Z,99.90
2022-10-16T02:45:27.659Z,99.90
2022-10-16T02:48:19.766Z,99.90
2022-10-16T02:51:11.927Z,99.90
2022-10-16T02:54:04.708Z,99.90
2022-10-16T02:56:56.804Z,99.90
2022-10-16T02:59:48.929Z,99.90
2022-10-16T03:02:41.152Z,99.90
2022-10-16T03:05:33.304Z,99.90
2022-10-16T03:08:26.195Z,99.90
2022-10-16T03:11:18.308Z,99.90
2022-10-16T03:14:10.424Z,99.90
2022-10-16T03:17:02.593Z,99.90
2022-10-16T03:19:54.725Z,99.90
2022-10-16T03:22:46.858Z,99.90
2022-10-16T03:25:39.071Z,99.90
2022-10-16T03:28:31.338Z,99.90
2022-10-16T03:31:23.523Z,99.90
2022-10-16T03:34:15.816Z,99.90
2022-10-16T03:37:08.044Z,99.90
2022-10-16T03:40:00.344Z,99.90
2022-10-16T03:42:52.640Z,99.90
2022-10-16T03:45:44.921Z,99.90
2022-10-16T03:48:37.071Z,99.90
2022-10-16T03:51:29.196Z,99.90
2022-10-16T03:54:21.366Z,99.90
2022-10-16T03:57:13.480Z,99.90
2022-10-16T04:00:06.173Z,99.90
2022-10-16T04:02:58.440Z,99.90
2022-10-16T04:05:51.103Z,99.90
2022-10-16T04:08:46.444Z,99.90
2022-10-16T04:11:38.587Z,99.90
2022-10-16T04:14:30.664Z,99.90
2022-10-16T04:17:22.862Z,99.90
2022-10-16T04:20:15.224Z,99.90
2022-10-16T04:23:07.355Z,99.90
2022-10-16T04:26:00.447Z,99.90
2022-10-16T04:28:52.626Z,99.90
2022-10-16T04:31:44.789Z,99.90
2022-10-16T04:34:37.599Z,99.90
2022-10-16T04:37:29.802Z,99.90
2022-10-16T04:40:21.918Z,99.90
2022-10-16T04:43:14.060Z,99.90
2022-10-16T04:46:06.225Z,99.90
2022-10-16T04:48:58.714Z,99.90
2022-10-16T04:51:50.875Z,99.90
2022-10-16T04:54:43.117Z,99.90
2022-10-16T04:57:35.248Z,99.90
2022-10-16T05:00:27.458Z,99.90
2022-10-16T05:03:20.199Z,99.90
2022-10-16T05:06:12.452Z,99.90
2022-10-16T05:09:04.851Z,99.90
2022-10-16T05:11:57.113Z,99.90
2022-10-16T05:14:49.238Z,99.90
2022-10-16T05:17:44.020Z,99.90
2022-10-16T05:20:37.042Z,99.90
2022-10-16T05:23:29.169Z,99.90
2022-10-16T05:26:21.844Z,99.90
2022-10-16T05:29:13.976Z,99.90
2022-10-16T05:32:06.077Z,99.90
2022-10-16T05:35:00.342Z,99.90
2022-10-16T05:37:53.594Z,99.90
2022-10-16T05:40:53.641Z,99.90
2022-10-16T05:43:45.769Z,99.90
2022-10-16T05:46:37.944Z,99.90
2022-10-16T05:49:30.965Z,99.90
2022-10-16T05:52:23.098Z,99.90
2022-10-16T05:55:15.271Z,99.90
2022-10-16T05:58:07.402Z,99.90
2022-10-16T06:01:14.144Z,99.90
2022-10-16T06:04:06.380Z,99.90
2022-10-16T06:07:01.645Z,99.90
2022-10-16T06:09:54.322Z,99.90
2022-10-16T06:12:46.439Z,99.90
2022-10-16T06:15:40.094Z,99.90
2022-10-16T06:18:32.493Z,99.90
2022-10-16T06:21:27.003Z,99.90
2022-10-16T06:24:19.114Z,99.90
2022-10-16T06:27:11.269Z,96.40
2022-10-16T06:30:04.814Z,93.20
2022-10-16T06:32:56.993Z,91.30
2022-10-16T06:35:49.116Z,87.70
2022-10-16T06:38:41.598Z,84.10
2022-10-16T06:41:34.281Z,81.70
2022-10-16T06:44:26.376Z,83.70
2022-10-16T06:47:18.734Z,86.50
2022-10-16T06:50:10.878Z,89.70
2022-10-16T06:53:03.103Z,91.40
2022-10-16T06:55:55.245Z,90.90
2022-10-16T06:58:48.132Z,93.00
2022-10-16T07:01:40.274Z,94.10
2022-10-16T07:04:32.430Z,96.30
2022-10-16T07:07:27.496Z,97.30
2022-10-16T07:10:19.674Z,99.10
2022-10-16T07:13:14.733Z,99.60
2022-10-16T07:16:10.520Z,99.90
2022-10-16T07:19:03.734Z,99.90
2022-10-16T07:21:55.815Z,99.90
2022-10-16T07:24:52.528Z,99.90
2022-10-16T07:27:44.982Z,99.90
2022-10-16T07:30:38.203Z,99.90
2022-10-16T07:33:30.645Z,99.90
2022-10-16T07:36:22.866Z,99.90
2022-10-16T07:39:15.009Z,99.90
2022-10-16T07:42:08.670Z,99.90
2022-10-16T07:45:00.784Z,99.90
2022-10-16T07:47:52.895Z,99.90
2022-10-16T07:50:45.616Z,99.90
2022-10-16T07:53:37.745Z,99.90
2022-10-16T07:56:32.570Z,99.90
2022-10-16T07:59:24.756Z,99.90
2022-10-16T08:02:16.897Z,99.90
2022-10-16T08:05:09.545Z,99.90
2022-10-16T08:08:02.992Z,99.90
2022-10-16T08:10:55.720Z,99.90
2022-10-16T08:13:47.895Z,99.90
2022-10-16T08:16:40.038Z,99.90
2022-10-16T08:19:35.285Z,99.90
2022-10-16T08:22:27.603Z,99.90
2022-10-16T08:25:19.814Z,99.90
2022-10-16T08:28:12.500Z,99.90
2022-10-16T08:31:10.702Z,99.90
2022-10-16T08:34:02.883Z,99.90
2022-10-16T08:36:55.860Z,99.90
2022-10-16T08:39:47.949Z,99.90
2022-10-16T08:43:01.279Z,99.90
2022-10-16T08:46:18.988Z,99.90
2022-10-16T08:49:14.717Z,99.90
2022-10-16T08:52:13.972Z,99.90
2022-10-16T08:55:06.747Z,99.90
2022-10-16T08:57:59.750Z,99.90
2022-10-16T09:00:55.741Z,99.90
2022-10-16T09:03:56.701Z,99.90
2022-10-16T09:06:58.877Z,99.90
2022-10-16T09:10:02.685Z,99.90
2022-10-16T09:13:12.312Z,99.90
2022-10-16T09:16:29.060Z,99.90
2022-10-16T09:19:34.188Z,99.90
2022-10-16T09:22:32.159Z,99.90
2022-10-16T09:25:24.567Z,99.90
2022-10-16T09:28:19.050Z,99.90
2022-10-16T09:31:20.328Z,99.90
2022-10-16T09:34:34.471Z,99.90
2022-10-16T09:37:27.477Z,99.90
2022-10-16T09:40:32.313Z,99.90
2022-10-16T09:43:46.692Z,99.90
2022-10-16T09:46:40.868Z,99.90
2022-10-16T09:49:33.036Z,99.90
2022-10-16T09:52:25.748Z,99.90
2022-10-16T09:55:19.772Z,99.90
2022-10-16T09:58:15.305Z,99.90
2022-10-16T10:01:13.393Z,99.90
2022-10-16T10:04:06.446Z,99.90
2022-10-16T10:06:59.644Z,99.90
2022-10-16T10:09:52.186Z,99.90
2022-10-16T10:12:46.509Z,99.90
2022-10-16T10:15:43.195Z,99.90
2022-10-16T10:18:35.380Z,99.90
2022-10-16T10:21:27.504Z,99.90
2022-10-16T10:24:20.785Z,99.90
2022-10-16T10:27:19.256Z,99.90
2022-10-16T10:30:25.239Z,99.90
2022-10-16T10:33:27.484Z,99.90
2022-10-16T10:36:38.085Z,99.90
2022-10-16T10:39:53.861Z,99.90
2022-10-16T10:42:54.564Z,99.90
2022-10-16T10:45:49.028Z,99.90
2022-10-16T10:49:09.105Z,99.90
2022-10-16T10:52:26.029Z,99.90
2022-10-16T10:55:23.431Z,99.90
2022-10-16T10:58:45.359Z,99.90
2022-10-16T11:01:58.908Z,99.90
2022-10-16T11:05:07.721Z,99.90
2022-10-16T11:08:11.287Z,99.90
2022-10-16T11:11:12.461Z,99.90
2022-10-16T11:14:16.247Z,99.90
2022-10-16T11:17:32.931Z,99.90
2022-10-16T11:20:29.197Z,99.90
2022-10-16T11:23:48.685Z,99.90
2022-10-16T11:26:44.111Z,99.90
2022-10-16T11:29:44.408Z,99.90
2022-10-16T11:33:04.648Z,99.90
2022-10-16T11:36:24.059Z,99.90
2022-10-16T11:39:29.820Z,99.90
2022-10-16T11:42:33.154Z,99.90
2022-10-16T11:45:40.825Z,99.90
2022-10-16T11:49:10.643Z,99.90
2022-10-16T11:52:20.746Z,99.90
2022-10-16T11:55:34.017Z,99.90
2022-10-16T11:58:29.254Z,99.90
2022-10-16T12:01:31.330Z,99.90
2022-10-16T12:04:46.216Z,99.90
2022-10-16T12:07:45.600Z,99.90
2022-10-16T12:13:37.366Z,99.90
2022-10-16T12:16:29.661Z,99.90
2022-10-16T12:19:23.032Z,99.90
2022-10-16T12:22:20.082Z,99.90
2022-10-16T12:25:47.489Z,99.90
2022-10-16T12:28:41.615Z,99.90
2022-10-16T12:31:49.786Z,99.90
2022-10-16T12:34:50.245Z,99.90
2022-10-16T12:37:42.452Z,99.90
2022-10-16T12:40:37.833Z,99.90
2022-10-16T12:43:39.081Z,99.90
2022-10-16T12:46:31.121Z,99.90
2022-10-16T12:49:38.968Z,99.90
2022-10-16T12:52:38.832Z,99.90
2022-10-16T12:56:06.390Z,99.90
2022-10-16T12:59:27.077Z,99.90
2022-10-16T13:02:41.202Z,99.90
2022-10-16T13:06:00.524Z,99.90
2022-10-16T13:09:24.409Z,99.90
2022-10-16T13:12:41.210Z,99.90
2022-10-16T13:15:47.371Z,99.90
2022-10-16T13:19:00.322Z,99.90
2022-10-16T13:22:13.804Z,99.90
2022-10-16T13:25:30.198Z,99.90
2022-10-16T13:28:28.301Z,99.90
2022-10-16T13:31:25.415Z,99.90
2022-10-16T13:34:21.648Z,99.90
2022-10-16T13:37:26.283Z,99.90
2022-10-16T13:40:25.203Z,99.90
2022-10-16T13:43:26.883Z,99.90
2022-10-16T13:46:24.022Z,99.90
2022-10-16T13:49:18.374Z,99.90
2022-10-16T13:52:19.942Z,99.90
2022-10-16T13:55:17.377Z,99.90
2022-10-16T13:58:14.425Z,99.90
2022-10-16T14:01:21.338Z,99.90
2022-10-16T14:04:14.987Z,99.90
2022-10-16T14:07:17.862Z,99.90
2022-10-16T14:10:30.910Z,99.90
2022-10-16T14:13:45.592Z,99.90
2022-10-16T14:16:41.539Z,99.90
2022-10-16T14:19:33.836Z,99.90
2022-10-16T14:22:33.658Z,99.90
2022-10-16T14:25:30.765Z,99.90
2022-10-16T14:28:24.661Z,99.90
2022-10-16T14:31:23.075Z,99.90
2022-10-16T14:34:33.737Z,99.90
2022-10-16T14:37:29.782Z,99.90
2022-10-16T14:40:25.698Z,99.90
2022-10-16T14:43:38.272Z,99.90
2022-10-16T14:46:34.400Z,99.90
2022-10-16T14:49:27.265Z,99.90
2022-10-16T14:52:19.429Z,99.90
2022-10-16T14:55:11.690Z,99.90
2022-10-16T14:58:03.907Z,99.90
2022-10-16T15:00:57.261Z,99.90
2022-10-16T15:03:50.164Z,99.90
2022-10-16T15:06:42.530Z,99.90
2022-10-16T15:09:34.881Z,99.90
2022-10-16T15:12:27.017Z,99.90
2022-10-16T15:15:25.233Z,99.90
2022-10-16T15:18:21.565Z,99.90
2022-10-16T15:21:27.700Z,99.90
2022-10-16T15:24:21.477Z,99.90
2022-10-16T15:27:13.924Z,99.90
2022-10-16T15:30:06.819Z,99.90
2022-10-16T15:32:59.271Z,99.90
2022-10-16T15:35:52.905Z,99.90
2022-10-16T15:38:46.446Z,99.90
2022-10-16T15:41:38.844Z,99.90
2022-10-16T15:44:31.290Z,99.90
2022-10-16T15:47:23.518Z,99.90
2022-10-16T15:50:16.658Z,99.90
2022-10-16T15:53:09.012Z,99.90
2022-10-16T15:56:08.763Z,99.90
2022-10-16T15:59:02.971Z,99.90
2022-10-16T16:01:55.159Z,99.90
2022-10-16T16:04:47.535Z,99.90
2022-10-16T16:07:41.266Z,99.90
2022-10-16T16:10:33.654Z,99.90
2022-10-16T16:13:26.114Z,99.90
2022-10-16T16:16:18.946Z,99.90
2022-10-16T16:19:11.908Z,99.90
2022-10-16T16:22:08.147Z,99.90
2022-10-16T16:25:03.016Z,99.90
2022-10-16T16:27:55.151Z,99.90
2022-10-16T16:30:51.744Z,99.90
2022-10-16T16:33:43.904Z,99.90
2022-10-16T16:36:37.461Z,99.90
2022-10-16T16:39:29.835Z,99.90
2022-10-16T16:42:22.006Z,99.90
2022-10-16T16:45:14.223Z,99.90
2022-10-16T16:48:08.068Z,99.90
2022-10-16T16:51:08.047Z,99.90
2022-10-16T16:54:00.465Z,99.90
2022-10-16T16:56:52.648Z,99.90
2022-10-16T16:59:44.824Z,99.90
2022-10-16T17:02:36.983Z,99.90
2022-10-16T17:05:29.180Z,99.90
2022-10-16T17:08:21.297Z,99.90
2022-10-16T17:11:25.754Z,99.90
2022-10-16T17:14:18.333Z,99.90
2022-10-16T17:17:10.472Z,99.90
2022-10-16T17:20:02.615Z,99.90
2022-10-16T17:22:54.830Z,99.90
2022-10-16T17:25:47.459Z,99.90
2022-10-16T17:28:40.074Z,99.90
2022-10-16T17:31:37.073Z,99.90
2022-10-16T17:34:29.242Z,99.90
2022-10-16T17:37:21.423Z,99.90
2022-10-16T17:43:10.834Z,99.90
2022-10-16T17:46:04.074Z,99.90
2022-10-16T17:48:56.334Z,99.90
2022-10-16T17:51:53.549Z,99.90
2022-10-16T17:54:45.824Z,99.90
2022-10-16T17:57:38.085Z,99.90
2022-10-16T18:00:30.196Z,99.90
2022-10-16T18:03:22.348Z,99.90
2022-10-16T18:06:16.871Z,99.90
2022-10-16T18:09:14.173Z,99.90
2022-10-16T18:12:06.491Z,99.90
2022-10-16T18:14:58.727Z,99.90
2022-10-16T18:17:50.878Z,99.90
2022-10-16T18:20:43.059Z,99.90
2022-10-16T18:23:36.590Z,99.90
2022-10-16T18:26:29.530Z,99.90
2022-10-16T18:29:22.132Z,99.90
2022-10-16T18:32:14.273Z,99.90
2022-10-16T18:35:06.811Z,99.90
2022-10-16T18:38:00.677Z,99.90
2022-10-16T18:40:53.009Z,99.90
2022-10-16T18:43:45.184Z,99.90
2022-10-16T18:46:37.705Z,99.90
2022-10-16T18:49:30.613Z,99.90
2022-10-16T18:52:23.900Z,99.90
2022-10-16T18:55:16.626Z,99.90
2022-10-16T18:58:08.833Z,99.90
2022-10-16T19:01:08.990Z,99.90
2022-10-16T19:04:03.835Z,99.90
2022-10-16T19:06:56.060Z,99.90
2022-10-16T19:09:48.221Z,99.90
2022-10-16T19:12:41.228Z,99.90
2022-10-16T19:15:33.377Z,99.90
2022-10-16T19:18:27.183Z,99.90
2022-10-16T19:21:20.267Z,99.90
2022-10-16T19:24:17.037Z,99.90
2022-10-16T19:27:09.228Z,99.90
2022-10-16T19:30:01.381Z,99.90
2022-10-16T19:32:53.556Z,99.90
2022-10-16T19:35:45.691Z,99.90
2022-10-16T19:38:38.463Z,99.90
2022-10-16T19:41:31.258Z,99.90
2022-10-16T19:44:23.405Z,99.90
2022-10-16T19:47:16.859Z,99.90
2022-10-16T19:50:12.176Z,99.90
2022-10-16T19:53:04.270Z,99.90
2022-10-16T19:55:57.241Z,99.90
2022-10-16T19:58:50.733Z,99.90
2022-10-16T20:01:43.607Z,99.90
2022-10-16T20:04:35.765Z,99.90
2022-10-16T20:07:30.133Z,99.90
2022-10-16T20:10:25.759Z,99.90
2022-10-16T20:13:18.428Z,99.90
2022-10-16T20:16:13.154Z,99.90
2022-10-16T20:19:05.351Z,99.90
2022-10-16T20:21:57.508Z,99.90
2022-10-16T20:24:49.612Z,99.90
2022-10-16T20:27:41.724Z,99.90
2022-10-16T20:30:42.940Z,99.90
2022-10-16T20:33:35.223Z,99.90
2022-10-16T20:36:30.550Z,99.90
2022-10-16T20:39:22.747Z,99.90
2022-10-16T20:42:14.910Z,99.90
2022-10-16T20:45:07.629Z,99.90
2022-10-16T20:48:00.263Z,99.90
2022-10-16T20:50:52.399Z,99.90
2022-10-16T20:53:46.628Z,99.90
2022-10-16T20:56:38.849Z,99.90
2022-10-16T20:59:31.025Z,99.90
2022-10-16T21:05:20.612Z,99.90
2022-10-16T21:08:12.739Z,99.90
2022-10-16T21:11:17.109Z,99.90
2022-10-16T21:14:09.507Z,99.90
2022-10-16T21:17:01.648Z,99.90
2022-10-16T21:19:53.751Z,99.90
2022-10-16T21:22:45.934Z,99.90
2022-10-16T21:25:38.053Z,99.90
2022-10-16T21:28:33.327Z,99.90
2022-10-16T21:31:25.578Z,99.90
2022-10-16T21:34:17.719Z,99.90
2022-10-16T21:37:09.976Z,99.90
2022-10-16T21:40:02.409Z,99.90
2022-10-16T21:42:54.533Z,99.90
2022-10-16T21:45:46.627Z,99.90
2022-10-16T21:48:39.488Z,99.90
2022-10-16T21:51:34.791Z,99.90
2022-10-16T21:54:27.012Z,99.90
2022-10-16T21:57:19.155Z,99.90
2022-10-16T22:00:11.705Z,99.90
2022-10-16T22:03:04.040Z,99.90
2022-10-16T22:06:05.612Z,99.90
2022-10-16T22:09:00.394Z,99.90
2022-10-16T22:11:52.827Z,99.90
2022-10-16T22:14:45.370Z,99.90
2022-10-16T22:17:37.753Z,99.90
2022-10-16T22:20:29.911Z,99.90
2022-10-16T22:23:22.481Z,99.90
2022-10-16T22:26:15.072Z,99.90
2022-10-16T22:29:07.925Z,99.90
2022-10-16T22:32:00.082Z,99.90
2022-10-16T22:34:52.216Z,99.90
2022-10-16T22:37:44.302Z,99.90
2022-10-16T22:40:37.804Z,99.90
2022-10-16T22:43:30.138Z,99.90
2022-10-16T22:46:28.462Z,99.90
2022-10-16T22:49:20.828Z,99.90
2022-10-16T22:52:13.529Z,99.90
2022-10-16T22:55:05.956Z,99.90
2022-10-16T22:57:58.101Z,99.90
2022-10-16T23:00:50.503Z,99.90
2022-10-16T23:03:42.715Z,99.90
2022-10-16T23:06:35.292Z,99.90
2022-10-16T23:09:27.612Z,99.90
2022-10-16T23:12:21.734Z,99.90
2022-10-16T23:15:14.079Z,99.90
2022-10-16T23:18:06.400Z,99.90
2022-10-16T23:20:58.526Z,99.90
2022-10-16T23:23:51.971Z,99.90
2022-10-16T23:26:44.135Z,99.90
2022-10-16T23:29:36.399Z,99.90
2022-10-16T23:32:28.930Z,99.90
2022-10-16T23:35:21.336Z,99.90
2022-10-16T23:38:13.491Z,99.90
2022-10-16T23:41:06.378Z,99.90
2022-10-16T23:43:58.477Z,99.90
2022-10-16T23:46:50.614Z,99.90
2022-10-16T23:49:42.863Z,99.90
2022-10-16T23:52:34.982Z,99.90
2022-10-16T23:55:27.159Z,99.90
2022-10-16T23:58:19.499Z,99.90
